Terminal Aerodrome Forecast
Issued by NWS Lake Charles, LA

Home | Current Version | Previous Version | Text Only | Print | Product List | Glossary On
Versions: 1 2 3 4 5 6 7 8 9 10 11 12 13
000
FTUS44 KLCH 290500
TAFAEX
TAF
KAEX 290520Z 2906/3006 15004KT P6SM VCSH SCT080 BKN250
      TEMPO 2910/2913 4SM BR
     FM291400 11011KT P6SM SCT040 BKN250 PROB30 2920/2924 4SM -TSRA
      OVC030CB
     FM300100 14005KT P6SM BKN250=

USA.gov is the U.S. government's official web portal to all federal, state and local government web resources and services.